createdAt,value
2023-05-21T00:01:19.113Z,100883.31
2023-05-21T00:03:47.292Z,100883.09
2023-05-21T00:06:15.649Z,100878.85
2023-05-21T00:08:43.228Z,100879.27
2023-05-21T00:11:11.199Z,100875.98
2023-05-21T00:13:38.759Z,100878.80
2023-05-21T00:16:06.483Z,100878.23
2023-05-21T00:18:34.697Z,100877.71
2023-05-21T00:21:01.877Z,100877.73
2023-05-21T00:23:30.440Z,100876.02
2023-05-21T00:25:57.989Z,100876.41
2023-05-21T00:28:25.189Z,100876.66
2023-05-21T00:30:52.601Z,100873.34
2023-05-21T00:33:22.002Z,100874.01
2023-05-21T00:35:49.252Z,100876.95
2023-05-21T00:38:17.977Z,100882.73
2023-05-21T00:40:45.604Z,100883.80
2023-05-21T00:43:14.599Z,100885.20
2023-05-21T00:45:44.816Z,100889.20
2023-05-21T00:48:13.098Z,100884.77
2023-05-21T00:50:40.957Z,100885.27
2023-05-21T00:53:10.259Z,100890.16
2023-05-21T00:55:38.285Z,100888.77
2023-05-21T00:58:06.096Z,100889.64
2023-05-21T01:00:35.402Z,100888.55
2023-05-21T01:03:03.404Z,100887.05
2023-05-21T01:05:31.538Z,100891.69
2023-05-21T01:08:00.077Z,100891.77
2023-05-21T01:10:28.811Z,100887.40
2023-05-21T01:12:59.342Z,100881.95
2023-05-21T01:15:27.616Z,100886.11
2023-05-21T01:17:56.081Z,100887.27
2023-05-21T01:20:24.885Z,100884.94
2023-05-21T01:22:55.278Z,100885.14
2023-05-21T01:25:24.768Z,100881.70
2023-05-21T01:27:52.334Z,100875.48
2023-05-21T01:30:22.295Z,100882.36
2023-05-21T01:32:54.750Z,100884.45
2023-05-21T01:35:24.484Z,100884.14
2023-05-21T01:37:56.886Z,100880.48
2023-05-21T01:40:28.820Z,100878.90
2023-05-21T01:42:56.683Z,100878.73
2023-05-21T01:45:27.153Z,100875.95
2023-05-21T01:47:57.200Z,100873.88
2023-05-21T01:50:25.874Z,100878.09
2023-05-21T01:52:55.408Z,100877.25
2023-05-21T01:55:25.650Z,100875.85
2023-05-21T01:57:53.963Z,100875.89
2023-05-21T02:03:16.720Z,100873.56
2023-05-21T02:05:44.125Z,100874.50
2023-05-21T02:08:11.583Z,100876.85
2023-05-21T02:10:41.937Z,100873.42
2023-05-21T02:13:09.293Z,100871.21
2023-05-21T02:15:36.605Z,100871.71
2023-05-21T02:18:04.620Z,100870.66
2023-05-21T02:20:32.152Z,100874.90
2023-05-21T02:22:59.405Z,100870.02
2023-05-21T02:25:26.584Z,100867.19
2023-05-21T02:27:54.263Z,100868.16
2023-05-21T02:30:21.510Z,100870.42
2023-05-21T02:32:49.226Z,100868.13
2023-05-21T02:35:17.012Z,100865.80
2023-05-21T02:37:44.602Z,100865.53
2023-05-21T02:40:13.318Z,100866.45
2023-05-21T02:42:41.721Z,100863.48
2023-05-21T02:45:12.302Z,100864.19
2023-05-21T02:47:41.672Z,100862.63
2023-05-21T02:50:11.451Z,100862.80
2023-05-21T02:52:45.407Z,100864.20
2023-05-21T02:55:13.421Z,100861.44
2023-05-21T02:57:40.761Z,100866.83
2023-05-21T03:00:10.700Z,100866.83
2023-05-21T03:02:38.780Z,100865.77
2023-05-21T03:05:07.241Z,100864.99
2023-05-21T03:07:35.040Z,100867.09
2023-05-21T03:10:05.394Z,100866.33
2023-05-21T03:12:32.723Z,100862.95
2023-05-21T03:15:00.203Z,100859.58
2023-05-21T03:17:28.406Z,100861.59
2023-05-21T03:19:56.259Z,100853.46
2023-05-21T03:22:23.683Z,100850.91
2023-05-21T03:24:51.949Z,100848.80
2023-05-21T03:27:19.201Z,100846.86
2023-05-21T03:29:48.103Z,100845.41
2023-05-21T03:32:16.252Z,100847.42
2023-05-21T03:34:51.925Z,100846.34
2023-05-21T03:37:19.143Z,100849.11
2023-05-21T03:39:46.555Z,100845.05
2023-05-21T03:42:14.494Z,100843.24
2023-05-21T03:44:48.815Z,100841.88
2023-05-21T03:47:36.241Z,100837.95
2023-05-21T03:50:09.529Z,100838.92
2023-05-21T03:52:45.493Z,100838.08
2023-05-21T03:55:16.040Z,100841.02
2023-05-21T03:57:44.247Z,100842.79
2023-05-21T04:00:12.835Z,100848.25
2023-05-21T04:02:47.731Z,100842.65
2023-05-21T04:05:17.532Z,100846.66
2023-05-21T04:07:46.624Z,100847.66
2023-05-21T04:10:14.609Z,100849.52
2023-05-21T04:12:41.879Z,100852.08
2023-05-21T04:15:11.443Z,100850.97
2023-05-21T04:17:40.152Z,100852.29
2023-05-21T04:20:09.535Z,100852.16
2023-05-21T04:22:36.688Z,100850.40
2023-05-21T04:25:04.258Z,100846.28
2023-05-21T04:27:35.400Z,100842.98
2023-05-21T04:30:04.553Z,100843.94
2023-05-21T04:32:35.136Z,100839.59
2023-05-21T04:35:02.985Z,100838.54
2023-05-21T04:37:31.658Z,100835.61
2023-05-21T04:39:59.363Z,100832.78
2023-05-21T04:42:26.835Z,100830.21
2023-05-21T04:44:55.596Z,100828.41
2023-05-21T04:47:22.999Z,100829.23
2023-05-21T04:49:51.790Z,100827.73
2023-05-21T04:52:19.011Z,100826.17
2023-05-21T04:54:46.141Z,100825.13
2023-05-21T04:57:13.434Z,100825.96
2023-05-21T04:59:41.536Z,100825.52
2023-05-21T05:02:09.196Z,100822.45
2023-05-21T05:04:36.887Z,100827.25
2023-05-21T05:07:04.087Z,100828.08
2023-05-21T05:09:31.837Z,100824.44
2023-05-21T05:11:59.135Z,100825.71
2023-05-21T05:14:26.361Z,100823.04
2023-05-21T05:16:54.591Z,100824.45
2023-05-21T05:19:22.074Z,100822.04
2023-05-21T05:21:49.503Z,100821.65
2023-05-21T05:24:17.031Z,100825.38
2023-05-21T05:26:44.500Z,100822.96
2023-05-21T05:29:12.042Z,100817.23
2023-05-21T05:31:39.200Z,100815.26
2023-05-21T05:34:06.520Z,100811.08
2023-05-21T05:36:33.843Z,100803.34
2023-05-21T05:39:03.233Z,100794.55
2023-05-21T05:41:30.548Z,100791.52
2023-05-21T05:43:57.744Z,100784.02
2023-05-21T05:46:27.497Z,100782.08
2023-05-21T05:48:55.007Z,100777.49
2023-05-21T05:51:22.162Z,100774.34
2023-05-21T05:53:49.418Z,100777.11
2023-05-21T05:56:17.559Z,100779.50
2023-05-21T05:58:44.977Z,100770.80
2023-05-21T06:01:14.509Z,100767.38
2023-05-21T06:03:41.963Z,100770.69
2023-05-21T06:06:12.265Z,100770.96
2023-05-21T06:08:40.681Z,100771.00
2023-05-21T06:11:08.006Z,100766.85
2023-05-21T06:13:35.196Z,100764.33
2023-05-21T06:16:02.615Z,100762.41
2023-05-21T06:18:30.186Z,100764.52
2023-05-21T06:20:57.820Z,100771.16
2023-05-21T06:23:25.301Z,100769.74
2023-05-21T06:25:53.531Z,100770.64
2023-05-21T06:28:21.081Z,100772.48
2023-05-21T06:30:48.955Z,100771.19
2023-05-21T06:33:16.464Z,100765.96
2023-05-21T06:35:44.311Z,100768.08
2023-05-21T06:38:11.671Z,100768.30
2023-05-21T06:40:39.000Z,100765.72
2023-05-21T06:43:06.686Z,100768.34
2023-05-21T06:45:59.702Z,100766.23
2023-05-21T06:48:36.193Z,100762.52
2023-05-21T06:51:03.944Z,100764.78
2023-05-21T06:53:31.162Z,100758.77
2023-05-21T06:55:58.452Z,100753.05
2023-05-21T06:58:36.347Z,100755.62
2023-05-21T07:01:04.953Z,100753.27
2023-05-21T07:03:32.493Z,100754.72
2023-05-21T07:06:00.425Z,100752.95
2023-05-21T07:08:28.026Z,100748.76
2023-05-21T07:10:56.564Z,100746.94
2023-05-21T07:13:24.098Z,100746.23
2023-05-21T07:15:51.446Z,100747.16
2023-05-21T07:18:18.578Z,100750.34
2023-05-21T07:20:46.080Z,100749.23
2023-05-21T07:23:15.121Z,100750.73
2023-05-21T07:25:42.476Z,100745.20
2023-05-21T07:28:10.235Z,100744.67
2023-05-21T07:30:37.403Z,100746.42
2023-05-21T07:33:07.524Z,100747.06
2023-05-21T07:35:36.128Z,100749.35
2023-05-21T07:38:04.166Z,100746.15
2023-05-21T07:40:31.409Z,100744.95
2023-05-21T07:42:58.868Z,100742.41
2023-05-21T07:45:28.476Z,100738.02
2023-05-21T07:47:56.271Z,100739.04
2023-05-21T07:50:23.641Z,100737.27
2023-05-21T07:52:50.923Z,100737.70
2023-05-21T07:55:18.930Z,100733.23
2023-05-21T07:57:46.995Z,100728.78
2023-05-21T08:00:18.147Z,100731.56
2023-05-21T08:02:49.979Z,100731.50
2023-05-21T08:05:17.632Z,100728.44
2023-05-21T08:07:45.008Z,100721.20
2023-05-21T08:10:13.279Z,100727.10
2023-05-21T08:12:40.961Z,100723.45
2023-05-21T08:15:09.912Z,100720.45
2023-05-21T08:17:41.341Z,100715.58
2023-05-21T08:20:10.808Z,100714.83
2023-05-21T08:22:38.159Z,100709.50
2023-05-21T08:25:06.225Z,100713.54
2023-05-21T08:27:33.533Z,100709.18
2023-05-21T08:30:00.941Z,100709.82
2023-05-21T08:32:28.459Z,100708.59
2023-05-21T08:34:55.754Z,100708.05
2023-05-21T08:37:38.473Z,100710.09
2023-05-21T08:40:32.451Z,100708.48
2023-05-21T08:42:59.937Z,100707.22
2023-05-21T08:45:40.696Z,100709.38
2023-05-21T08:48:10.532Z,100709.30
2023-05-21T08:50:38.865Z,100709.41
2023-05-21T08:53:23.374Z,100711.91
2023-05-21T08:55:57.718Z,100719.40
2023-05-21T08:58:31.134Z,100719.55
2023-05-21T09:00:59.153Z,100720.95
2023-05-21T09:03:27.361Z,100715.45
2023-05-21T09:05:55.229Z,100715.77
2023-05-21T09:08:28.688Z,100716.26
2023-05-21T09:11:00.312Z,100720.57
2023-05-21T09:13:32.982Z,100728.65
2023-05-21T09:16:00.858Z,100724.03
2023-05-21T09:18:28.956Z,100721.13
2023-05-21T09:21:26.655Z,100717.54
2023-05-21T09:24:01.936Z,100711.83
2023-05-21T09:26:30.103Z,100703.88
2023-05-21T09:29:02.414Z,100711.20
2023-05-21T09:31:30.913Z,100708.42
2023-05-21T09:33:58.137Z,100704.08
2023-05-21T09:36:25.996Z,100708.94
2023-05-21T09:38:54.652Z,100701.72
2023-05-21T09:41:22.940Z,100707.11
2023-05-21T09:43:50.993Z,100709.03
2023-05-21T09:46:22.010Z,100707.85
2023-05-21T09:48:49.404Z,100698.58
2023-05-21T09:51:19.846Z,100707.60
2023-05-21T09:53:54.689Z,100702.80
2023-05-21T09:56:24.825Z,100706.64
2023-05-21T09:58:55.768Z,100705.99
2023-05-21T10:01:24.777Z,100702.42
2023-05-21T10:03:56.322Z,100702.34
2023-05-21T10:06:25.622Z,100698.46
2023-05-21T10:08:56.112Z,100697.89
2023-05-21T10:11:26.652Z,100696.98
2023-05-21T10:13:59.245Z,100694.10
2023-05-21T10:16:26.770Z,100691.06
2023-05-21T10:18:55.565Z,100689.66
2023-05-21T10:21:24.485Z,100696.66
2023-05-21T10:23:52.518Z,100689.95
2023-05-21T10:26:21.888Z,100686.37
2023-05-21T10:28:50.098Z,100682.52
2023-05-21T10:31:17.860Z,100682.41
2023-05-21T10:33:46.309Z,100680.20
2023-05-21T10:36:14.016Z,100677.70
2023-05-21T10:38:42.211Z,100676.50
2023-05-21T10:41:11.070Z,100671.48
2023-05-21T10:43:57.948Z,100669.18
2023-05-21T10:46:47.369Z,100667.05
2023-05-21T10:49:45.585Z,100666.74
2023-05-21T10:52:26.464Z,100668.45
2023-05-21T10:55:10.757Z,100670.85
2023-05-21T10:57:54.079Z,100677.30
2023-05-21T11:00:22.293Z,100675.66
2023-05-21T11:02:52.053Z,100666.42
2023-05-21T11:05:36.277Z,100665.70
2023-05-21T11:08:03.680Z,100664.05
2023-05-21T11:10:41.191Z,100662.84
2023-05-21T11:13:14.598Z,100658.68
2023-05-21T11:16:07.521Z,100651.21
2023-05-21T11:19:04.025Z,100658.66
2023-05-21T11:21:35.723Z,100655.86
2023-05-21T11:24:11.322Z,100651.37
2023-05-21T11:27:05.147Z,100647.42
2023-05-21T11:29:44.394Z,100647.11
2023-05-21T11:32:13.946Z,100647.46
2023-05-21T11:34:43.604Z,100647.05
2023-05-21T11:37:40.811Z,100650.88
2023-05-21T11:40:22.606Z,100654.42
2023-05-21T11:42:54.751Z,100645.08
2023-05-21T11:45:23.786Z,100646.89
2023-05-21T11:47:52.882Z,100645.58
2023-05-21T11:50:20.975Z,100637.83
2023-05-21T11:52:48.338Z,100647.44
2023-05-21T11:55:16.925Z,100650.13
2023-05-21T11:57:48.157Z,100642.88
2023-05-21T12:00:19.189Z,100642.24
2023-05-21T12:02:52.202Z,100647.47
2023-05-21T12:05:20.458Z,100645.30
2023-05-21T12:07:51.161Z,100644.13
2023-05-21T12:10:18.453Z,100643.77
2023-05-21T12:12:54.569Z,100640.36
2023-05-21T12:15:23.117Z,100636.39
2023-05-21T12:17:53.355Z,100631.05
2023-05-21T12:20:21.283Z,100637.73
2023-05-21T12:22:49.877Z,100639.51
2023-05-21T12:25:20.308Z,100637.38
2023-05-21T12:27:47.953Z,100636.66
2023-05-21T12:30:15.830Z,100636.56
2023-05-21T12:32:45.807Z,100631.15
2023-05-21T12:35:24.258Z,100630.89
2023-05-21T12:37:52.468Z,100628.66
2023-05-21T12:40:20.227Z,100626.70
2023-05-21T12:42:47.459Z,100622.23
2023-05-21T12:45:18.797Z,100625.34
2023-05-21T12:47:56.555Z,100620.80
2023-05-21T12:50:26.513Z,100620.27
2023-05-21T12:52:57.212Z,100616.08
2023-05-21T12:55:25.646Z,100614.27
2023-05-21T12:58:01.687Z,100617.60
2023-05-21T13:00:29.136Z,100616.27
2023-05-21T13:02:57.385Z,100611.19
2023-05-21T13:05:24.976Z,100611.66
2023-05-21T13:07:52.338Z,100614.46
2023-05-21T13:10:20.213Z,100611.36
2023-05-21T13:12:48.099Z,100611.02
2023-05-21T13:15:16.034Z,100605.80
2023-05-21T13:17:43.616Z,100602.80
2023-05-21T13:20:13.413Z,100598.70
2023-05-21T13:22:42.891Z,100598.95
2023-05-21T13:25:12.312Z,100598.13
2023-05-21T13:27:39.906Z,100602.88
2023-05-21T13:30:09.608Z,100595.39
2023-05-21T13:32:37.495Z,100592.80
2023-05-21T13:35:05.351Z,100596.23
2023-05-21T13:37:32.818Z,100597.77
2023-05-21T13:40:00.310Z,100598.36
2023-05-21T13:42:27.615Z,100600.98
2023-05-21T13:44:54.844Z,100603.42
2023-05-21T13:47:24.056Z,100599.21
2023-05-21T13:49:52.198Z,100599.95
2023-05-21T13:52:19.878Z,100601.70
2023-05-21T13:54:48.068Z,100595.33
2023-05-21T13:57:15.293Z,100599.27
2023-05-21T13:59:42.682Z,100600.65
2023-05-21T14:02:11.614Z,100600.48
2023-05-21T14:04:39.663Z,100593.91
2023-05-21T14:07:07.785Z,100588.66
2023-05-21T14:09:35.957Z,100589.48
2023-05-21T14:12:06.430Z,100590.41
2023-05-21T14:14:33.992Z,100594.20
2023-05-21T14:17:01.923Z,100595.42
2023-05-21T14:19:29.405Z,100593.35
2023-05-21T14:21:56.732Z,100595.13
2023-05-21T14:24:23.911Z,100590.88
2023-05-21T14:26:51.051Z,100589.88
2023-05-21T14:29:18.802Z,100586.29
2023-05-21T14:31:46.895Z,100588.22
2023-05-21T14:34:14.160Z,100585.06
2023-05-21T14:36:41.306Z,100583.10
2023-05-21T14:39:08.580Z,100585.41
2023-05-21T14:41:39.574Z,100585.77
2023-05-21T14:44:07.151Z,100578.79
2023-05-21T14:46:34.607Z,100576.09
2023-05-21T14:49:03.504Z,100573.12
2023-05-21T14:51:31.689Z,100572.33
2023-05-21T14:53:59.227Z,100569.20
2023-05-21T14:56:27.978Z,100567.02
2023-05-21T14:58:55.704Z,100565.84
2023-05-21T15:01:23.351Z,100564.55
2023-05-21T15:03:51.355Z,100560.89
2023-05-21T15:06:18.955Z,100566.45
2023-05-21T15:08:46.541Z,100564.63
2023-05-21T15:11:13.691Z,100559.33
2023-05-21T15:13:41.525Z,100558.30
2023-05-21T15:16:09.460Z,100560.96
2023-05-21T15:18:36.650Z,100557.45
2023-05-21T15:21:04.001Z,100557.96
2023-05-21T15:23:32.387Z,100555.52
2023-05-21T15:25:59.642Z,100551.46
2023-05-21T15:28:26.829Z,100555.42
2023-05-21T15:30:54.266Z,100554.07
2023-05-21T15:33:21.607Z,100551.27
2023-05-21T15:35:49.144Z,100555.70
2023-05-21T15:38:16.336Z,100556.20
2023-05-21T15:40:43.663Z,100551.54
2023-05-21T15:43:10.940Z,100553.37
2023-05-21T15:45:39.690Z,100551.92
2023-05-21T15:48:08.381Z,100555.20
2023-05-21T15:50:36.261Z,100554.05
2023-05-21T15:53:04.469Z,100552.94
2023-05-21T15:55:35.290Z,100554.28
2023-05-21T15:58:10.442Z,100559.31
2023-05-21T16:00:38.242Z,100555.84
2023-05-21T16:03:05.714Z,100555.67
2023-05-21T16:05:33.123Z,100555.84
2023-05-21T16:08:00.578Z,100549.25
2023-05-21T16:10:27.905Z,100553.42
2023-05-21T16:12:55.185Z,100554.73
2023-05-21T16:15:22.749Z,100556.90
2023-05-21T16:17:50.017Z,100552.30
2023-05-21T16:20:18.905Z,100552.33
2023-05-21T16:22:46.207Z,100547.35
2023-05-21T16:25:13.581Z,100545.65
2023-05-21T16:27:41.021Z,100550.27
2023-05-21T16:30:11.926Z,100549.16
2023-05-21T16:32:39.695Z,100548.64
2023-05-21T16:35:08.564Z,100552.99
2023-05-21T16:37:35.957Z,100548.77
2023-05-21T16:40:03.036Z,100547.12
2023-05-21T16:42:30.383Z,100548.95
2023-05-21T16:44:57.622Z,100543.77
2023-05-21T16:47:25.378Z,100540.86
2023-05-21T16:49:52.807Z,100542.02
2023-05-21T16:52:20.030Z,100542.19
2023-05-21T16:54:49.011Z,100544.64
2023-05-21T16:57:16.473Z,100546.06
2023-05-21T16:59:45.264Z,100546.29
2023-05-21T17:02:14.146Z,100551.27
2023-05-21T17:04:41.667Z,100549.64
2023-05-21T17:07:09.374Z,100551.70
2023-05-21T17:09:36.811Z,100552.39
2023-05-21T17:12:04.336Z,100554.05
2023-05-21T17:14:34.915Z,100554.08
2023-05-21T17:17:02.983Z,100555.23
2023-05-21T17:19:30.590Z,100555.40
2023-05-21T17:21:59.014Z,100551.02
2023-05-21T17:24:26.185Z,100549.34
2023-05-21T17:26:53.650Z,100552.45
2023-05-21T17:29:20.804Z,100554.04
2023-05-21T17:31:48.034Z,100556.70
2023-05-21T17:34:16.739Z,100555.20
2023-05-21T17:36:43.920Z,100552.62
2023-05-21T17:39:11.105Z,100554.72
2023-05-21T17:41:38.375Z,100550.57
2023-05-21T17:44:05.742Z,100550.94
2023-05-21T17:46:32.985Z,100552.89
2023-05-21T17:49:00.143Z,100549.01
2023-05-21T17:51:27.585Z,100545.96
2023-05-21T17:53:54.752Z,100543.59
2023-05-21T17:56:22.370Z,100541.45
2023-05-21T17:58:50.359Z,100546.27
2023-05-21T18:01:17.998Z,100542.78
2023-05-21T18:03:45.305Z,100541.08
2023-05-21T18:06:12.740Z,100542.36
2023-05-21T18:08:39.872Z,100541.13
2023-05-21T18:11:07.248Z,100539.08
2023-05-21T18:13:34.460Z,100541.67
2023-05-21T18:16:02.199Z,100540.77
2023-05-21T18:18:29.619Z,100543.40
2023-05-21T18:20:57.008Z,100546.52
2023-05-21T18:23:24.234Z,100545.76
2023-05-21T18:25:51.882Z,100549.10
2023-05-21T18:28:19.243Z,100548.40
2023-05-21T18:30:46.424Z,100548.54
2023-05-21T18:33:15.393Z,100553.12
2023-05-21T18:35:42.688Z,100554.94
2023-05-21T18:38:10.266Z,100555.73
2023-05-21T18:40:37.844Z,100553.41
2023-05-21T18:43:06.414Z,100558.69
2023-05-21T18:45:33.696Z,100556.02
2023-05-21T18:48:01.030Z,100559.85
2023-05-21T18:50:28.600Z,100563.83
2023-05-21T18:52:57.957Z,100563.43
2023-05-21T18:55:25.400Z,100566.35
2023-05-21T18:57:52.555Z,100567.69
2023-05-21T19:00:20.972Z,100570.25
2023-05-21T19:02:48.622Z,100569.34
2023-05-21T19:05:16.648Z,100568.71
2023-05-21T19:07:43.756Z,100574.61
2023-05-21T19:10:14.628Z,100575.79
2023-05-21T19:12:42.621Z,100573.42
2023-05-21T19:15:12.098Z,100572.13
2023-05-21T19:17:39.946Z,100572.17
2023-05-21T19:20:09.965Z,100576.14
2023-05-21T19:22:38.156Z,100573.23
2023-05-21T19:25:05.896Z,100571.54
2023-05-21T19:27:33.053Z,100576.21
2023-05-21T19:30:00.365Z,100575.85
2023-05-21T19:32:27.651Z,100575.82
2023-05-21T19:34:54.962Z,100577.34
2023-05-21T19:37:22.489Z,100581.17
2023-05-21T19:39:50.462Z,100581.71
2023-05-21T19:42:18.276Z,100580.33
2023-05-21T19:44:45.597Z,100583.79
2023-05-21T19:47:12.712Z,100584.84
2023-05-21T19:49:40.226Z,100583.91
2023-05-21T19:52:07.890Z,100582.15
2023-05-21T19:54:35.391Z,100582.62
2023-05-21T19:57:02.610Z,100578.20
2023-05-21T19:59:29.733Z,100575.36
2023-05-21T20:01:56.881Z,100574.13
2023-05-21T20:04:24.330Z,100572.35
2023-05-21T20:06:52.157Z,100568.82
2023-05-21T20:09:19.399Z,100567.59
2023-05-21T20:11:48.369Z,100565.96
2023-05-21T20:14:18.369Z,100562.23
2023-05-21T20:16:47.290Z,100562.70
2023-05-21T20:19:15.461Z,100564.20
2023-05-21T20:21:43.262Z,100563.20
2023-05-21T20:24:11.487Z,100561.35
2023-05-21T20:26:40.243Z,100564.69
2023-05-21T20:29:08.304Z,100564.36
2023-05-21T20:31:36.040Z,100568.58
2023-05-21T20:34:07.320Z,100569.09
2023-05-21T20:36:35.190Z,100570.79
2023-05-21T20:39:02.517Z,100572.31
2023-05-21T20:41:35.727Z,100574.63
2023-05-21T20:44:06.938Z,100578.31
2023-05-21T20:46:34.397Z,100576.38
2023-05-21T20:49:02.296Z,100576.04
2023-05-21T20:51:30.053Z,100576.30
2023-05-21T20:53:57.278Z,100575.73
2023-05-21T20:56:40.001Z,100572.83
2023-05-21T20:59:10.461Z,100573.23
2023-05-21T21:01:40.837Z,100577.00
2023-05-21T21:04:09.058Z,100574.55
2023-05-21T21:06:38.671Z,100572.46
2023-05-21T21:09:06.432Z,100571.10
2023-05-21T21:11:33.913Z,100568.88
2023-05-21T21:14:02.745Z,100569.13
2023-05-21T21:16:30.385Z,100565.52
2023-05-21T21:18:57.912Z,100565.45
2023-05-21T21:21:25.266Z,100565.05
2023-05-21T21:23:52.715Z,100562.48
2023-05-21T21:26:22.135Z,100560.65
2023-05-21T21:28:49.297Z,100554.80
2023-05-21T21:31:18.149Z,100555.03
2023-05-21T21:33:45.675Z,100554.86
2023-05-21T21:36:14.733Z,100556.07
2023-05-21T21:38:41.891Z,100558.17
2023-05-21T21:41:09.221Z,100554.14
2023-05-21T21:43:46.099Z,100552.02
2023-05-21T21:46:13.474Z,100552.71
2023-05-21T21:48:40.608Z,100553.60
2023-05-21T21:51:08.326Z,100556.39
2023-05-21T21:53:35.561Z,100559.86
2023-05-21T21:56:02.965Z,100559.83
2023-05-21T21:58:30.164Z,100556.28
2023-05-21T22:00:57.472Z,100554.85
2023-05-21T22:03:24.820Z,100555.00
2023-05-21T22:05:52.503Z,100558.97
2023-05-21T22:08:20.008Z,100556.38
2023-05-21T22:10:47.300Z,100556.41
2023-05-21T22:13:14.562Z,100554.55
2023-05-21T22:15:41.702Z,100555.04
2023-05-21T22:18:10.362Z,100553.73
2023-05-21T22:23:05.341Z,100556.95
2023-05-21T22:25:32.468Z,100555.11
2023-05-21T22:27:59.750Z,100558.35
2023-05-21T22:30:27.101Z,100560.58
2023-05-21T22:32:54.441Z,100562.54
2023-05-21T22:35:21.575Z,100560.24
2023-05-21T22:37:48.733Z,100566.06
2023-05-21T22:40:16.636Z,100565.41
2023-05-21T22:42:43.951Z,100561.71
2023-05-21T22:45:12.943Z,100564.33
2023-05-21T22:47:40.749Z,100565.19
2023-05-21T22:50:11.364Z,100565.04
2023-05-21T22:52:39.610Z,100565.85
2023-05-21T22:55:09.681Z,100570.33
2023-05-21T22:57:36.811Z,100567.05
2023-05-21T23:00:07.043Z,100565.56
2023-05-21T23:02:34.225Z,100564.08
2023-05-21T23:05:02.160Z,100561.39
2023-05-21T23:07:29.401Z,100558.69
2023-05-21T23:09:57.441Z,100558.37
2023-05-21T23:12:24.793Z,100556.95
2023-05-21T23:14:52.357Z,100557.88
2023-05-21T23:17:19.713Z,100554.80
2023-05-21T23:19:50.242Z,100553.39
2023-05-21T23:22:17.903Z,100553.61
2023-05-21T23:24:45.054Z,100552.73
2023-05-21T23:27:12.303Z,100554.33
2023-05-21T23:29:39.763Z,100556.20
2023-05-21T23:32:08.111Z,100556.52
2023-05-21T23:34:35.406Z,100557.05
2023-05-21T23:37:03.079Z,100557.38
2023-05-21T23:39:30.945Z,100554.25
2023-05-21T23:41:58.298Z,100557.02
2023-05-21T23:44:25.802Z,100553.11
2023-05-21T23:46:53.203Z,100555.32
2023-05-21T23:49:20.349Z,100554.05
2023-05-21T23:51:51.011Z,100553.06
2023-05-21T23:54:18.643Z,100554.94
2023-05-21T23:56:46.512Z,100555.23
2023-05-21T23:59:15.033Z,100555.30
